createdAt,value
2019-04-06T00:00:35.938Z,5.80
2019-04-06T00:04:40.934Z,5.70
2019-04-06T00:08:46.075Z,5.70
2019-04-06T00:12:51.070Z,5.70
2019-04-06T00:16:56.092Z,5.60
2019-04-06T00:21:01.089Z,5.60
2019-04-06T00:25:06.770Z,5.50
2019-04-06T00:29:11.825Z,5.50
2019-04-06T00:33:18.482Z,5.40
2019-04-06T00:37:23.516Z,5.30
2019-04-06T00:41:28.540Z,5.20
2019-04-06T00:45:34.637Z,5.20
2019-04-06T00:49:39.597Z,5.20
2019-04-06T00:53:44.614Z,5.40
2019-04-06T00:57:50.618Z,5.40
2019-04-06T01:01:55.661Z,5.50
2019-04-06T01:06:00.663Z,5.60
2019-04-06T01:10:06.800Z,5.60
2019-04-06T01:14:11.918Z,5.50
2019-04-06T01:18:16.930Z,5.40
2019-04-06T01:22:21.938Z,5.40
2019-04-06T01:26:26.949Z,5.30
2019-04-06T01:30:31.943Z,5.20
2019-04-06T01:34:37.022Z,5.10
2019-04-06T01:38:42.638Z,5.10
2019-04-06T01:42:47.645Z,5.20
2019-04-06T01:46:52.690Z,5.20
2019-04-06T01:50:57.677Z,5.20
2019-04-06T01:55:02.715Z,5.20
2019-04-06T01:59:07.796Z,5.20
2019-04-06T02:03:12.808Z,5.20
2019-04-06T02:07:17.810Z,5.10
2019-04-06T02:11:22.867Z,5.10
2019-04-06T02:15:27.809Z,5.00
2019-04-06T02:19:32.838Z,4.90
2019-04-06T02:23:37.883Z,4.90
2019-04-06T02:27:42.883Z,4.90
2019-04-06T02:32:05.683Z,4.80
2019-04-06T02:36:12.382Z,4.80
2019-04-06T02:40:24.585Z,4.80
2019-04-06T02:44:30.428Z,4.80
2019-04-06T02:48:35.474Z,4.80
2019-04-06T02:52:40.494Z,4.60
2019-04-06T02:56:47.764Z,4.60
2019-04-06T03:00:52.253Z,4.50
2019-04-06T03:04:57.259Z,4.50
2019-04-06T03:09:02.375Z,4.70
2019-04-06T03:13:07.600Z,4.80
2019-04-06T03:17:12.600Z,4.70
2019-04-06T03:21:17.587Z,4.70
2019-04-06T03:25:22.603Z,4.60
2019-04-06T03:29:27.674Z,4.60
2019-04-06T03:33:32.702Z,4.70
2019-04-06T03:37:37.718Z,4.60
2019-04-06T03:41:42.705Z,4.60
2019-04-06T03:45:47.710Z,4.60
2019-04-06T03:49:52.709Z,4.50
2019-04-06T03:53:57.742Z,4.60
2019-04-06T03:58:02.758Z,4.50
2019-04-06T04:02:07.638Z,4.50
2019-04-06T04:06:12.657Z,4.40
2019-04-06T04:10:32.936Z,4.30
2019-04-06T04:14:38.008Z,4.30
2019-04-06T04:18:43.026Z,4.10
2019-04-06T04:22:48.042Z,4.00
2019-04-06T04:26:53.022Z,4.00
2019-04-06T04:30:58.033Z,4.00
2019-04-06T04:35:03.038Z,4.00
2019-04-06T04:39:08.647Z,4.00
2019-04-06T04:43:13.654Z,4.00
2019-04-06T04:47:18.662Z,4.00
2019-04-06T04:51:23.655Z,4.00
2019-04-06T04:55:28.659Z,4.00
2019-04-06T04:59:33.706Z,4.20
2019-04-06T05:03:39.059Z,4.80
2019-04-06T05:07:44.082Z,5.70
2019-04-06T05:11:49.200Z,6.70
2019-04-06T05:16:12.051Z,7.70
2019-04-06T05:20:17.362Z,8.70
2019-04-06T05:24:22.685Z,9.80
2019-04-06T05:28:27.977Z,10.70
2019-04-06T05:32:33.338Z,11.80
2019-04-06T05:36:38.612Z,12.80
2019-04-06T05:40:43.925Z,13.90
2019-04-06T05:44:49.817Z,15.10
2019-04-06T05:48:55.158Z,16.00
2019-04-06T05:53:00.755Z,17.00
2019-04-06T05:57:06.204Z,17.90
2019-04-06T06:01:11.502Z,19.00
2019-04-06T06:05:16.800Z,20.60
2019-04-06T06:09:22.157Z,21.40
2019-04-06T06:13:27.433Z,22.60
2019-04-06T06:17:32.698Z,23.80
2019-04-06T06:21:37.998Z,24.30
2019-04-06T06:25:43.357Z,24.80
2019-04-06T06:29:48.774Z,26.10
2019-04-06T06:33:54.293Z,27.30
2019-04-06T06:38:01.580Z,28.10
2019-04-06T06:42:07.451Z,29.10
2019-04-06T06:46:13.045Z,28.40
2019-04-06T06:50:18.343Z,27.80
2019-04-06T06:54:23.692Z,27.90
2019-04-06T06:58:29.083Z,28.40
2019-04-06T07:02:34.395Z,29.30
2019-04-06T07:06:39.698Z,30.00
2019-04-06T07:10:45.032Z,31.40
2019-04-06T07:14:50.301Z,31.90
2019-04-06T07:18:56.231Z,32.90
2019-04-06T07:23:01.585Z,33.70
2019-04-06T07:27:07.547Z,34.10
2019-04-06T07:31:13.256Z,34.40
2019-04-06T07:35:20.587Z,34.60
2019-04-06T07:39:26.158Z,35.00
2019-04-06T07:43:31.423Z,35.50
2019-04-06T07:47:36.920Z,36.00
2019-04-06T07:51:42.218Z,36.70
2019-04-06T07:55:47.528Z,37.00
2019-04-06T07:59:52.884Z,37.80
2019-04-06T08:03:58.170Z,38.60
2019-04-06T08:08:03.438Z,38.80
2019-04-06T08:12:08.778Z,38.80
2019-04-06T08:16:14.185Z,37.20
2019-04-06T08:20:20.225Z,35.30
2019-04-06T08:24:25.501Z,34.50
2019-04-06T08:28:30.806Z,34.30
2019-04-06T08:32:36.177Z,34.00
2019-04-06T08:36:41.482Z,34.60
2019-04-06T08:40:47.155Z,34.20
2019-04-06T08:44:52.673Z,34.40
2019-04-06T08:48:57.928Z,33.90
2019-04-06T08:53:04.648Z,33.90
2019-04-06T08:57:10.136Z,35.00
2019-04-06T09:01:15.513Z,34.50
2019-04-06T09:05:20.793Z,33.60
2019-04-06T09:09:26.114Z,30.90
2019-04-06T09:13:31.381Z,32.20
2019-04-06T09:17:36.682Z,32.90
2019-04-06T09:21:42.266Z,31.90
2019-04-06T09:25:47.594Z,30.50
2019-04-06T09:29:53.074Z,29.30
2019-04-06T09:33:58.417Z,28.90
2019-04-06T09:38:04.166Z,29.80
2019-04-06T09:42:09.614Z,30.10
2019-04-06T09:46:25.853Z,30.50
2019-04-06T09:50:49.234Z,29.90
2019-04-06T09:55:01.985Z,29.50
2019-04-06T09:59:12.766Z,28.90
2019-04-06T10:03:21.055Z,29.30
2019-04-06T10:07:28.351Z,29.80
2019-04-06T10:11:44.230Z,30.00
2019-04-06T10:16:07.482Z,31.00
2019-04-06T10:20:26.526Z,29.10
2019-04-06T10:24:33.966Z,27.80
2019-04-06T10:28:49.924Z,28.90
2019-04-06T10:33:09.303Z,29.30
2019-04-06T10:37:18.888Z,29.90
2019-04-06T10:41:31.717Z,29.30
2019-04-06T10:45:47.605Z,31.20
2019-04-06T10:49:54.503Z,30.70
2019-04-06T10:54:10.090Z,30.00
2019-04-06T10:58:26.130Z,30.20
2019-04-06T11:02:49.372Z,29.90
2019-04-06T11:06:58.951Z,32.40
2019-04-06T11:11:21.818Z,32.40
2019-04-06T11:15:28.751Z,30.60
2019-04-06T11:19:53.844Z,30.80
2019-04-06T11:24:15.598Z,31.40
2019-04-06T11:28:22.525Z,31.30
2019-04-06T11:32:32.150Z,30.10
2019-04-06T11:36:40.155Z,28.50
2019-04-06T11:40:50.026Z,28.70
2019-04-06T11:45:02.478Z,27.60
2019-04-06T11:49:16.838Z,25.80
2019-04-06T11:53:26.769Z,25.70
2019-04-06T11:57:36.527Z,24.60
2019-04-06T12:06:23.584Z,22.80
2019-04-06T12:10:33.399Z,22.90
2019-04-06T12:14:40.336Z,22.50
2019-04-06T12:18:56.058Z,22.10
2019-04-06T12:23:15.504Z,21.70
2019-04-06T12:27:28.550Z,20.80
2019-04-06T12:31:44.726Z,20.80
2019-04-06T12:35:51.718Z,20.60
2019-04-06T12:39:58.782Z,20.40
2019-04-06T12:44:22.393Z,20.20
2019-04-06T12:48:47.405Z,19.90
2019-04-06T12:52:54.400Z,20.00
2019-04-06T12:57:07.010Z,19.70
2019-04-06T13:01:16.691Z,19.70
2019-04-06T13:05:40.307Z,19.50
2019-04-06T13:09:59.079Z,19.60
2019-04-06T13:14:06.142Z,19.50
2019-04-06T13:18:28.594Z,19.40
2019-04-06T13:22:52.483Z,19.30
2019-04-06T13:27:02.230Z,19.40
2019-04-06T13:31:14.878Z,19.50
2019-04-06T13:35:31.133Z,19.40
2019-04-06T13:39:38.350Z,19.30
2019-04-06T13:44:01.756Z,19.20
2019-04-06T13:48:08.923Z,19.20
2019-04-06T13:52:15.830Z,19.40
2019-04-06T13:56:35.051Z,19.70
2019-04-06T14:01:00.406Z,19.80
2019-04-06T14:05:23.351Z,20.00
2019-04-06T14:09:45.563Z,20.20
2019-04-06T14:13:52.571Z,20.30
2019-04-06T14:18:14.581Z,20.00
2019-04-06T14:22:21.721Z,19.70
2019-04-06T14:26:40.362Z,19.50
2019-04-06T14:30:50.054Z,19.40
2019-04-06T14:35:12.447Z,19.50
2019-04-06T14:39:23.964Z,19.60
2019-04-06T14:43:33.561Z,19.60
2019-04-06T14:48:00.124Z,19.80
2019-04-06T14:52:22.002Z,20.20
2019-04-06T14:56:32.292Z,20.80
2019-04-06T15:00:54.974Z,21.00
2019-04-06T15:05:21.008Z,20.50
2019-04-06T15:09:31.036Z,19.90
2019-04-06T15:13:54.316Z,19.10
2019-04-06T15:18:01.404Z,18.50
2019-04-06T15:22:20.685Z,18.30
2019-04-06T15:26:27.589Z,18.30
2019-04-06T15:30:37.555Z,18.20
2019-04-06T15:34:50.892Z,18.30
2019-04-06T15:38:57.897Z,18.20
2019-04-06T15:43:20.110Z,18.10
2019-04-06T15:47:36.409Z,18.00
2019-04-06T15:51:43.808Z,17.80
2019-04-06T15:55:56.569Z,17.70
2019-04-06T16:00:03.550Z,17.60
2019-04-06T16:04:27.754Z,17.40
2019-04-06T16:08:38.114Z,17.20
2019-04-06T16:12:45.102Z,17.10
2019-04-06T16:17:08.681Z,16.90
2019-04-06T16:21:21.952Z,16.80
2019-04-06T16:25:47.428Z,16.60
2019-04-06T16:29:54.805Z,16.50
2019-04-06T16:34:02.114Z,16.40
2019-04-06T16:38:15.509Z,16.30
2019-04-06T16:42:40.255Z,16.20
2019-04-06T16:46:47.185Z,16.10
2019-04-06T16:50:54.122Z,16.00
2019-04-06T16:55:18.733Z,15.80
2019-04-06T16:59:28.717Z,15.70
2019-04-06T17:03:42.000Z,15.70
2019-04-06T17:07:54.949Z,15.60
2019-04-06T17:12:17.096Z,15.50
2019-04-06T17:16:24.027Z,15.40
2019-04-06T17:20:30.959Z,15.30
2019-04-06T17:24:57.179Z,15.10
2019-04-06T17:29:19.745Z,15.00
2019-04-06T17:33:27.098Z,14.70
2019-04-06T17:37:35.922Z,14.60
2019-04-06T17:41:59.482Z,14.50
2019-04-06T17:46:13.014Z,14.40
2019-04-06T17:50:29.496Z,14.30
2019-04-06T17:54:54.713Z,14.30
2019-04-06T17:59:01.909Z,14.40
2019-04-06T18:03:28.502Z,14.40
2019-04-06T18:07:35.464Z,14.40
2019-04-06T18:11:46.086Z,14.30
2019-04-06T18:15:51.867Z,14.10
2019-04-06T18:19:57.517Z,13.90
2019-04-06T18:24:03.549Z,13.80
2019-04-06T18:28:08.887Z,13.60
2019-04-06T18:32:16.162Z,13.50
2019-04-06T18:36:23.245Z,13.50
2019-04-06T18:40:28.686Z,13.40
2019-04-06T18:44:33.985Z,13.40
2019-04-06T18:48:39.449Z,13.30
2019-04-06T18:52:45.644Z,13.20
2019-04-06T18:56:51.286Z,13.10
2019-04-06T19:00:57.348Z,13.00
2019-04-06T19:05:02.794Z,13.10
2019-04-06T19:09:20.521Z,13.10
2019-04-06T19:13:16.494Z,13.00
2019-04-06T19:17:21.857Z,13.00
2019-04-06T19:21:27.443Z,12.90
2019-04-06T19:25:32.838Z,12.90
2019-04-06T19:29:38.321Z,12.80
2019-04-06T19:33:44.093Z,12.80
2019-04-06T19:37:49.534Z,12.70
2019-04-06T19:41:55.102Z,12.60
2019-04-06T19:46:00.404Z,12.50
2019-04-06T19:50:07.660Z,12.40
2019-04-06T19:54:13.041Z,12.40
2019-04-06T19:58:18.851Z,12.30
2019-04-06T20:02:24.232Z,12.30
2019-04-06T20:06:29.583Z,12.20
2019-04-06T20:10:35.066Z,12.10
2019-04-06T20:14:40.749Z,12.00
2019-04-06T20:18:46.050Z,12.00
2019-04-06T20:22:51.575Z,11.90
2019-04-06T20:26:57.002Z,11.80
2019-04-06T20:31:02.510Z,11.70
2019-04-06T20:35:09.259Z,11.60
2019-04-06T20:39:15.179Z,11.50
2019-04-06T20:43:20.786Z,11.40
2019-04-06T20:47:26.728Z,11.30
2019-04-06T20:51:31.992Z,11.30
2019-04-06T20:55:37.303Z,11.10
2019-04-06T20:59:42.590Z,11.10
2019-04-06T21:03:59.278Z,11.10
2019-04-06T21:07:55.419Z,11.10
2019-04-06T21:12:01.251Z,11.00
2019-04-06T21:16:07.723Z,10.90
2019-04-06T21:20:15.266Z,10.80
2019-04-06T21:24:21.020Z,10.70
2019-04-06T21:28:26.339Z,10.50
2019-04-06T21:32:32.529Z,10.40
2019-04-06T21:36:38.025Z,10.40
2019-04-06T21:40:43.388Z,10.40
2019-04-06T21:44:49.156Z,10.30
2019-04-06T21:48:54.469Z,10.30
2019-04-06T21:52:59.773Z,10.20
2019-04-06T21:57:05.110Z,10.20
2019-04-06T22:01:14.638Z,10.00
2019-04-06T22:05:21.579Z,9.90
2019-04-06T22:09:27.144Z,9.90
2019-04-06T22:13:32.742Z,9.80
2019-04-06T22:17:38.235Z,9.80
2019-04-06T22:21:44.000Z,9.70
2019-04-06T22:25:49.416Z,9.60
2019-04-06T22:29:54.770Z,9.50
2019-04-06T22:34:00.405Z,9.40
2019-04-06T22:38:05.845Z,9.30
2019-04-06T22:42:11.168Z,9.20
2019-04-06T22:46:17.061Z,9.10
2019-04-06T22:50:22.337Z,9.00
2019-04-06T22:54:27.734Z,9.00
2019-04-06T22:58:33.394Z,8.90
2019-04-06T23:02:43.094Z,8.80
2019-04-06T23:07:02.031Z,8.70
2019-04-06T23:11:08.001Z,8.60
2019-04-06T23:15:15.261Z,8.50
2019-04-06T23:19:20.574Z,8.30
2019-04-06T23:23:25.879Z,8.20
2019-04-06T23:27:31.782Z,8.20
2019-04-06T23:31:37.153Z,8.00
2019-04-06T23:35:42.400Z,7.80
2019-04-06T23:39:48.186Z,7.60
2019-04-06T23:43:53.471Z,7.40
2019-04-06T23:47:59.353Z,7.10
2019-04-06T23:52:04.634Z,7.00
2019-04-06T23:56:10.127Z,6.80
